Huvudsida
METAR-TAF:

METAR-TAF

Flygplatser :

Scatsta Airport

Scatsta, Shetlandsöarna, Skottland

latitud: 60-26N, longitud: 001-18W, höjd: 22 m

Aktuellt väderrapport

Denna rapport gjordes för 30 minuter sedan, klockan 00:20 UTC
Vind 17 kt från syd/sydost
Temperatur 9°C
Fuktighet 76%
Tryck 1010 hPa
Sikt 10 km eller mer

METAR: EGPM 230020Z AUTO 15017KT 9999 NCD 09/05 Q1010

Tid: 01:50 (00:50 UTC)

Väderprognos

Denna rapport gjordes för 10 timmar och 49 minuter sedan, klockan 14:01 UTC
Prognos gäller från 22 kl. 15 UTC till 22 kl. 20 UTC
Vind 17 kt från syd
Sikt 10 km eller mer
Inga moln under 1 500 m eller inga cumulonimbus
Temporärt
från 22 kl. 15 UTC till 22 kl. 20 UTC
Vind 20 kt från syd/sydost i byarna ända upp till 30 kt

TAF: EGPM 221401Z 2215/2220 17017KT CAVOK TEMPO 2215/2220 16020G30KT

Aktuella väderrapporter och prognoser från 4000 flygplatser (METAR- och TAF-rapporter).

De tillgängliga stationerna syns som gula och röda prickar på kartan.

För musen över prickarna för att se namnen på stationerna.

Klicka sedan för att få väderrapporter och prognoser.

För att ändra kartan: Klicka på de gröna knapparna med ett svart kors på för att zooma in; den gröna knappen med ett streck på för att zooma ut; eller på de gröna pilarna för angränsande kartor.


METAR-TAF: